Bhop Stats - Record Database
Name SteamID Rank Points Last Seen (DD-MM-YYYY)
Afraidofthebomb STEAM_1:0:92066632 52 5660.46 26-07-2021 14:46:10
Run ID SteamID Name Map Style Track Time Jumps Strafes Sync Points Date (DD-MM-YYYY)
24586 184133264 Afraidofthebomb bhop_nox Low Gravity Main 24.828s 16 56 92.32% 0.00 07-08-2019 18:06:48
24587 184133264 Afraidofthebomb bhop_nox Half-Sideways Main 51.117s 66 84 96.13% 76.70 07-08-2019 18:19:34
24588 184133264 Afraidofthebomb bhop_nox Normal Main 31.320s 41 70 92.62% 136.00 07-08-2019 19:14:04
24906 184133264 Afraidofthebomb bhop_bumpy_ride Normal Main 57.867s 85 121 86.72% 182.08 10-08-2019 06:51:32
25218 184133264 Afraidofthebomb bhop_atom Half-Sideways Bonus 1 11.672s 16 27 97.27% 8.41 11-08-2019 16:14:20
25222 184133264 Afraidofthebomb bhop_scape Half-Sideways Main 53.258s 54 68 97.08% 72.12 11-08-2019 16:47:18
25585 184133264 Afraidofthebomb bhop_jib_jib_csgo Low Gravity Main 10.773s 9 39 87.10% 0.00 15-08-2019 02:31:48
27791 184133264 Afraidofthebomb bhop_despair Low Gravity Main 29.648s 19 107 91.20% 0.00 31-08-2019 07:03:53
27807 184133264 Afraidofthebomb bhop_despair Scroll Main 49.852s 63 161 90.86% 37.68 31-08-2019 07:23:44
27809 184133264 Afraidofthebomb bhop_alvo2 Low Gravity Bonus 1 43.500s 20 72 87.74% 0.00 31-08-2019 07:54:51
27855 184133264 Afraidofthebomb bhop_remnants Normal Main 17.945s 25 41 93.24% 73.81 31-08-2019 13:17:50
27977 184133264 Afraidofthebomb bhop_opl Normal Main 21.867s 18 49 93.74% 160.87 01-09-2019 07:44:18
27982 184133264 Afraidofthebomb bhop_manpoo Scroll Main 42.805s 48 102 93.34% 38.52 01-09-2019 07:58:18
27991 184133264 Afraidofthebomb bhop_degree Low Gravity Main 36.734s 16 79 93.37% 0.00 01-09-2019 11:14:17
28061 184133264 Afraidofthebomb bhop_1derland Normal Main 18.711s 27 64 89.37% 75.31 01-09-2019 11:40:58
28140 184133264 Afraidofthebomb bhop_mapsuck Scroll Main 22.297s 26 74 92.20% 37.25 02-09-2019 05:43:35
28142 184133264 Afraidofthebomb bhop_mapsuck Half-Sideways Main 22.422s 27 32 96.72% 34.82 02-09-2019 05:50:11
28143 184133264 Afraidofthebomb bhop_mapsuck Normal Main 19.711s 23 59 92.83% 63.34 02-09-2019 05:55:19
28343 184133264 Afraidofthebomb bhop_areaportal_v1 Low Gravity Main 08:27.289m 232 850 93.11% 0.00 03-09-2019 11:33:32
28344 184133264 Afraidofthebomb bhop_classicrainbowaux Low Gravity Main 40.609s 15 99 91.41% 0.00 03-09-2019 11:45:27
28427 184133264 Afraidofthebomb bhop_medium_v1 Low Gravity Main 48.680s 33 111 93.72% 0.00 04-09-2019 03:00:59
28434 184133264 Afraidofthebomb bhop_anyyy Low Gravity Main 17.117s 13 64 92.36% 0.00 04-09-2019 03:26:46
28439 184133264 Afraidofthebomb bhop_anyyy Half-Sideways Main 26.242s 37 39 98.04% 30.51 04-09-2019 03:29:01
28442 184133264 Afraidofthebomb bhop_safehaven Half-Sideways Main 50.594s 68 82 96.86% 39.19 04-09-2019 03:45:41
28444 184133264 Afraidofthebomb bhop_temporal2 Low Gravity Main 22.273s 16 54 94.19% 0.00 04-09-2019 03:55:34
28446 184133264 Afraidofthebomb bhop_slope_v2 Low Gravity Main 15.625s 7 46 93.26% 0.00 04-09-2019 03:58:24
28449 184133264 Afraidofthebomb bhop_slope_v2 Normal Main 13.109s 11 43 91.59% 72.35 04-09-2019 04:08:14
28453 184133264 Afraidofthebomb bhop_slope_v2 Slow Motion Main 12.160s 10 67 94.43% 0.00 04-09-2019 04:17:04
28455 184133264 Afraidofthebomb bhop_flavum Low Gravity Main 20.602s 14 54 93.19% 0.00 04-09-2019 04:32:29
28456 184133264 Afraidofthebomb bhop_blueshit_csgo Low Gravity Main 20.039s 13 64 91.50% 0.00 04-09-2019 04:34:21
28462 184133264 Afraidofthebomb bhop_blueshit_csgo Scroll Main 26.492s 33 88 89.33% 35.23 04-09-2019 04:45:41
28696 184133264 Afraidofthebomb bhop_slayer_final Low Gravity Main 17.922s 11 59 93.50% 0.00 05-09-2019 07:30:07
28717 184133264 Afraidofthebomb bhop_slayer_final Half-Sideways Main 23.734s 27 35 97.00% 38.29 05-09-2019 07:35:51
28725 184133264 Afraidofthebomb bhop_slayer_final Scroll Main 21.938s 26 94 90.02% 38.23 05-09-2019 07:43:56
28739 184133264 Afraidofthebomb bhop_slayer_final Low Gravity Bonus 1 17.461s 11 56 90.38% 0.00 05-09-2019 07:56:54
28762 184133264 Afraidofthebomb bhop_jump_academy_csgo Normal Main 17.969s 18 56 90.71% 66.06 05-09-2019 08:13:16
28775 184133264 Afraidofthebomb bhop_tango_final2 Normal Main 14.797s 20 48 92.31% 133.75 05-09-2019 08:24:22
28784 184133264 Afraidofthebomb bhop_tango_final2 Low Gravity Main 14.367s 10 60 91.65% 0.00 05-09-2019 08:35:09
29424 184133264 Afraidofthebomb bhop_hahalol Normal Main 19.133s 24 44 94.52% 66.53 07-09-2019 12:34:41
29458 184133264 Afraidofthebomb bhop_lego Normal Main 11.836s 15 53 90.40% 69.68 07-09-2019 13:47:26
29475 184133264 Afraidofthebomb bhop_easy_csgo Half-Sideways Main 01:11.492m 94 91 97.37% 51.25 07-09-2019 14:41:13
29481 184133264 Afraidofthebomb bhop_easy_csgo Normal Bonus 1 12.500s 16 28 93.38% 15.86 07-09-2019 14:59:09
29482 184133264 Afraidofthebomb bhop_internetclub Half-Sideways Main 53.352s 68 69 97.80% 76.78 07-09-2019 15:10:24
29484 184133264 Afraidofthebomb bhop_internetclub Half-Sideways Bonus 1 14.172s 19 21 94.92% 9.49 07-09-2019 15:16:37
29488 184133264 Afraidofthebomb bhop_internetclub Low Gravity Bonus 1 11.750s 8 53 89.26% 0.00 07-09-2019 15:44:52
29508 184133264 Afraidofthebomb bhop_masket Normal Main 13.797s 17 43 91.12% 62.38 07-09-2019 16:28:08
29513 184133264 Afraidofthebomb bhop_masket Slow Motion Main 9.961s 14 55 93.17% 0.00 07-09-2019 16:38:13
29521 184133264 Afraidofthebomb bhop_gridust_final Low Gravity Main 3.633s 3 17 85.95% 0.00 07-09-2019 16:46:33
29525 184133264 Afraidofthebomb bhop_gridust_final Normal Main 11.531s 16 38 92.97% 64.58 07-09-2019 16:51:21
29529 184133264 Afraidofthebomb bhop_gridust_final Half-Sideways Main 12.172s 17 17 98.09% 37.91 07-09-2019 16:57:00
29532 184133264 Afraidofthebomb bhop_gridust_final Scroll Main 13.000s 18 38 89.91% 37.93 07-09-2019 17:07:28
29536 184133264 Afraidofthebomb bhop_gridust_final Slow Motion Main 9.289s 13 62 91.96% 0.00 07-09-2019 17:14:10
29540 184133264 Afraidofthebomb bhop_castletown Slow Motion Main 10.609s 13 60 93.61% 0.00 07-09-2019 17:23:48
29542 184133264 Afraidofthebomb bhop_castletown Normal Main 14.672s 19 40 93.62% 62.40 07-09-2019 17:27:32
29851 184133264 Afraidofthebomb bhop_edge Low Gravity Main 02:45.297m 104 330 93.12% 0.00 08-09-2019 22:35:25
29853 184133264 Afraidofthebomb bhop_noobhop_exg Normal Main 31.883s 43 81 92.75% 67.49 08-09-2019 23:37:37
29854 184133264 Afraidofthebomb bhop_noobhop_exg Low Gravity Main 29.344s 20 93 93.24% 0.00 08-09-2019 23:43:18
30018 184133264 Afraidofthebomb bhop_qmpa Low Gravity Main 30.617s 15 84 94.05% 0.00 09-09-2019 19:25:13
30020 184133264 Afraidofthebomb bhop_remnants Low Gravity Main 17.250s 12 38 94.69% 0.00 09-09-2019 21:28:12
30021 184133264 Afraidofthebomb bhop_sandtrap3 Low Gravity Main 01:05.906m 19 62 96.79% 0.00 09-09-2019 21:45:05
30022 184133264 Afraidofthebomb bhop_sandtrap3 Low Gravity Bonus 1 16.133s 4 28 92.90% 0.00 09-09-2019 22:13:46
30023 184133264 Afraidofthebomb bhop_japan Low Gravity Main 01:46.789m 68 176 93.11% 0.00 09-09-2019 22:26:50
30031 184133264 Afraidofthebomb bhop_alt_paskin Low Gravity Main 14.625s 10 44 93.20% 0.00 09-09-2019 23:29:54
30036 184133264 Afraidofthebomb bhop_alt_paskin Normal Main 15.781s 22 51 90.96% 65.39 09-09-2019 23:47:01
28008 184133264 Afraidofthebomb bhop_jethro_blue Normal Main 14.688s 18 43 91.46% 129.50 09-09-2019 23:49:19
30039 184133264 Afraidofthebomb bhop_jethro_blue Slow Motion Main 10.625s 11 59 90.23% 0.00 10-09-2019 00:13:23
28001 184133264 Afraidofthebomb bhop_jethro_blue Low Gravity Main 12.656s 6 45 91.47% 0.00 10-09-2019 00:36:54
30050 184133264 Afraidofthebomb bhop_quake_final Slow Motion Main 8.902s 11 42 94.16% 0.00 10-09-2019 01:07:28
30044 184133264 Afraidofthebomb bhop_quake_final Low Gravity Main 9.453s 6 28 90.05% 0.00 10-09-2019 01:15:04
30232 184133264 Afraidofthebomb bhop_moonlight_csgo Normal Main 17.078s 23 34 94.54% 66.43 10-09-2019 14:35:06
30235 184133264 Afraidofthebomb bhop_umbra_csgo_v2 Low Gravity Bonus 1 21.961s 4 24 93.65% 0.00 10-09-2019 15:03:12
30239 184133264 Afraidofthebomb bhop_daryl Half-Sideways Main 24.563s 33 34 98.50% 35.43 10-09-2019 15:43:19
30243 184133264 Afraidofthebomb bhop_daryl Normal Main 19.180s 26 61 92.31% 69.34 10-09-2019 15:48:37
30377 184133264 Afraidofthebomb bhop_liquor_spat Low Gravity Main 18.203s 12 40 93.90% 0.00 11-09-2019 18:28:59
30675 184133264 Afraidofthebomb bhop_suddenfire_csgo Half-Sideways Bonus 1 3.984s 1 3 86.56% 9.41 12-09-2019 13:23:22
30676 184133264 Afraidofthebomb bhop_suddenfire_csgo Normal Bonus 1 3.727s 0 7 92.53% 18.00 12-09-2019 13:25:56
30677 184133264 Afraidofthebomb bhop_suddenfire_csgo Low Gravity Main 31.859s 18 76 92.98% 0.00 12-09-2019 13:31:15
30679 184133264 Afraidofthebomb bhop_suddenfire_csgo Low Gravity Bonus 1 4.953s 0 8 89.55% 0.00 12-09-2019 13:31:25
30713 184133264 Afraidofthebomb bhop_ambience Normal Bonus 1 10.273s 14 39 89.11% 17.45 12-09-2019 14:45:05
30726 184133264 Afraidofthebomb bhop_aiko Scroll Main 36.695s 48 101 89.46% 70.61 12-09-2019 15:04:07
30727 184133264 Afraidofthebomb bhop_aiko 400 Vel Main 45.320s 59 124 91.42% 38.26 12-09-2019 15:06:07
30728 184133264 Afraidofthebomb bhop_aiko Normal Main 26.164s 34 59 91.82% 126.86 12-09-2019 15:10:17
30742 184133264 Afraidofthebomb bhop_aow_whiteout Low Gravity Main 26.039s 18 86 90.48% 0.00 12-09-2019 17:52:37
30744 184133264 Afraidofthebomb bhop_aow_whiteout Half-Sideways Main 36.680s 51 41 97.10% 38.72 12-09-2019 18:05:27
30745 184133264 Afraidofthebomb bhop_aow_whiteout Normal Main 29.914s 41 85 92.78% 66.37 12-09-2019 18:16:45
30747 184133264 Afraidofthebomb bhop_flavum Slow Motion Main 18.438s 22 74 94.96% 0.00 12-09-2019 18:24:25
30749 184133264 Afraidofthebomb bhop_monotonous Low Gravity Main 52.250s 35 112 95.62% 0.00 12-09-2019 18:56:54
30750 184133264 Afraidofthebomb bhop_monotonous Half-Sideways Main 01:38.352m 131 125 97.41% 76.34 12-09-2019 19:03:45
31463 184133264 Afraidofthebomb bhop_cavehop_beta Low Gravity Main 12.961s 15 37 92.29% 0.00 15-09-2019 17:48:12
31464 184133264 Afraidofthebomb bhop_blueshit_csgo Segmented Main 19.641s 26 58 90.56% 19.08 15-09-2019 18:06:20
31465 184133264 Afraidofthebomb bhop_green_shade Low Gravity Main 01:40.102m 65 179 94.88% 0.00 15-09-2019 18:20:33
31466 184133264 Afraidofthebomb bhop_green_shade Normal Main 02:09.805m 169 236 94.43% 190.73 15-09-2019 18:44:12
32036 184133264 Afraidofthebomb bhop_ssj Low Gravity Main 4.773s 4 19 92.41% 0.00 18-09-2019 14:47:57
32047 184133264 Afraidofthebomb bhop_sunstreak2 Normal Main 23.281s 31 50 93.37% 59.13 18-09-2019 15:44:25
32049 184133264 Afraidofthebomb bhop_sunstreak2 Low Gravity Main 19.789s 14 61 92.33% 0.00 18-09-2019 15:47:02
32050 184133264 Afraidofthebomb bhop_sangria Low Gravity Main 29.969s 21 81 93.72% 0.00 18-09-2019 18:04:20
32051 184133264 Afraidofthebomb bhop_sangria Slow Motion Main 24.664s 35 119 94.55% 0.00 18-09-2019 18:11:59
32053 184133264 Afraidofthebomb bhop_deckbox_fix Segmented Main 14.125s 19 28 92.87% 46.67 18-09-2019 18:31:25
32052 184133264 Afraidofthebomb bhop_deckbox_fix Low Gravity Main 7.664s 5 25 91.93% 0.00 18-09-2019 18:37:25
32057 184133264 Afraidofthebomb bhop_cluster_fix Low Gravity Main 03:58.750m 138 438 87.18% 0.00 18-09-2019 19:15:14